Time;durP1;ratioP1;P1;durP2;ratioP2;P2;SDS_P1;SDS_P2;PMS_P1;PMS_P2;Temp;Humidity;BMP_temperature;BMP_pressure;BME280_temperature;BME280_humidity;BME280_pressure;Samples;Min_cycle;Max_cycle;Signal;HPM_P1;HPM_P2
2023/03/23 00:00:38;;;;;;;;;;;;;;;14.86;50.30;100681.16;5075879;28;20387;-77
2023/03/23 00:03:30;;;;;;;;;;;;;;;14.73;50.58;100682.34;5081228;28;19916;-78
2023/03/23 00:06:23;;;;;;;;;;;;;;;14.67;50.96;100672.75;5078802;28;19920;-78
2023/03/23 00:09:15;;;;;;;;;;;;;;;14.61;51.35;100668.66;5059957;28;19916;-77
2023/03/23 00:12:07;;;;;;;;;;;;;;;14.53;51.56;100676.63;5059251;28;19917;-79
2023/03/23 00:14:59;;;;;;;;;;;;;;;14.58;51.54;100663.88;5044762;28;20292;-77
2023/03/23 00:17:51;;;;;;;;;;;;;;;14.60;51.33;100667.84;5041860;28;19925;-77
2023/03/23 00:20:43;;;;;;;;;;;;;;;14.50;51.48;100665.56;5055951;28;19917;-78
2023/03/23 00:23:36;;;;;;;;;;;;;;;14.36;51.78;100665.94;5061073;28;19917;-79
2023/03/23 00:26:29;;;;;;;;;;;;;;;14.41;51.58;100662.16;5056709;28;19921;-79
2023/03/23 00:29:20;;;;;;;;;;;;;;;14.43;51.50;100663.41;5051575;28;19917;-77
2023/03/23 00:32:16;;;;;;;;;;;;;;;14.43;51.41;100662.59;5061568;28;19917;-79
2023/03/23 00:35:08;;;;;;;;;;;;;;;14.42;51.51;100663.75;5072409;28;19916;-79
2023/03/23 00:38:00;;;;;;;;;;;;;;;14.39;51.80;100651.56;5076341;28;19917;-77
2023/03/23 00:40:49;;;;;;;;;;;;;;;14.32;51.84;100653.25;5076145;28;20291;-77
2023/03/23 00:43:41;;;;;;;;;;;;;;;14.14;52.39;100650.72;5059095;28;19917;-80
2023/03/23 00:46:30;;;;;;;;;;;;;;;14.14;52.46;100649.91;5057373;28;19921;-77
2023/03/23 00:49:29;;;;;;;;;;;;;;;14.19;52.22;100649.69;5069891;28;19917;-78
2023/03/23 00:52:21;;;;;;;;;;;;;;;14.27;52.11;100645.25;5052412;28;20291;-78
2023/03/23 00:55:13;;;;;;;;;;;;;;;14.31;52.19;100643.44;5037464;28;19917;-79
2023/03/23 00:58:05;;;;;;;;;;;;;;;14.43;52.14;100641.50;5038154;28;19918;-77
2023/03/23 01:00:57;;;;;;;;;;;;;;;14.44;51.84;100640.38;5055542;28;20291;-77
2023/03/23 01:03:49;;;;;;;;;;;;;;;14.28;52.01;100635.91;5056721;28;19925;-78
2023/03/23 01:06:41;;;;;;;;;;;;;;;14.35;52.00;100627.94;5056584;28;19921;-79
2023/03/23 01:09:32;;;;;;;;;;;;;;;14.30;52.02;100633.63;5072789;28;19920;-79
2023/03/23 01:12:24;;;;;;;;;;;;;;;14.28;52.05;100625.75;5059251;28;19921;-77
2023/03/23 01:15:18;;;;;;;;;;;;;;;14.25;52.24;100631.91;5050565;28;19917;-78
2023/03/23 01:18:09;;;;;;;;;;;;;;;14.21;52.25;100631.00;5040285;28;19917;-79
2023/03/23 01:20:59;;;;;;;;;;;;;;;14.21;52.38;100627.47;5054992;28;19916;-78
2023/03/23 01:23:51;;;;;;;;;;;;;;;14.06;53.04;100623.47;5061346;28;19920;-79
2023/03/23 01:26:42;;;;;;;;;;;;;;;14.07;52.90;100628.59;5059356;28;19921;-77
2023/03/23 01:29:34;;;;;;;;;;;;;;;14.06;53.43;100620.75;5063512;28;19921;-77
2023/03/23 01:32:26;;;;;;;;;;;;;;;14.08;52.82;100618.44;5051780;28;19916;-77
2023/03/23 01:35:18;;;;;;;;;;;;;;;13.94;52.94;100604.31;5066894;28;19917;-79
2023/03/23 01:38:08;;;;;;;;;;;;;;;14.01;53.20;100610.84;5055457;28;19917;-77
2023/03/23 01:41:00;;;;;;;;;;;;;;;14.11;52.62;100606.84;5058208;28;20007;-78
2023/03/23 01:44:01;;;;;;;;;;;;;;;14.07;52.82;100609.44;5070935;28;19916;-78
2023/03/23 01:46:53;;;;;;;;;;;;;;;14.08;53.14;100607.50;5063617;28;20388;-77
2023/03/23 01:49:48;;;;;;;;;;;;;;;14.12;53.23;100595.56;5055890;28;19917;-77
2023/03/23 01:52:41;;;;;;;;;;;;;;;14.01;52.87;100596.38;5054314;28;19917;-77
2023/03/23 01:55:33;;;;;;;;;;;;;;;14.06;52.92;100598.88;5073232;28;19917;-78
2023/03/23 01:58:26;;;;;;;;;;;;;;;13.97;53.31;100596.22;5057391;28;19920;-77
2023/03/23 02:01:18;;;;;;;;;;;;;;;13.91;53.18;100602.28;5071772;28;19924;-77
2023/03/23 02:04:10;;;;;;;;;;;;;;;13.83;53.34;100593.03;5055052;28;19917;-77
2023/03/23 02:07:02;;;;;;;;;;;;;;;13.85;53.09;100588.03;5066816;28;19921;-77
2023/03/23 02:09:54;;;;;;;;;;;;;;;13.91;53.04;100592.16;5081504;28;19921;-77
2023/03/23 02:12:46;;;;;;;;;;;;;;;14.00;52.84;100587.38;5069205;28;19916;-77
2023/03/23 02:15:46;;;;;;;;;;;;;;;13.95;52.84;100581.31;5054778;28;19916;-78
2023/03/23 02:18:55;;;;;;;;;;;;;;;13.95;53.01;100582.13;5058534;28;19917;-77
2023/03/23 02:22:00;;;;;;;;;;;;;;;13.97;53.10;100585.28;5059986;28;19917;-78
2023/03/23 02:24:58;;;;;;;;;;;;;;;13.75;53.10;100584.94;5058812;28;19917;-78
2023/03/23 02:27:51;;;;;;;;;;;;;;;13.79;53.00;100573.00;5066400;28;19925;-77
2023/03/23 02:30:59;;;;;;;;;;;;;;;13.60;53.65;100576.28;5060014;28;19917;-77
2023/03/23 02:33:51;;;;;;;;;;;;;;;13.35;54.93;100585.53;5052528;28;20395;-77
2023/03/23 02:36:46;;;;;;;;;;;;;;;13.47;54.65;100574.63;5057877;28;19917;-80
2023/03/23 02:39:50;;;;;;;;;;;;;;;13.42;54.74;100583.03;5063349;28;19917;-79
2023/03/23 02:42:43;;;;;;;;;;;;;;;13.49;54.55;100575.09;5054596;28;19929;-80
2023/03/23 02:45:35;;;;;;;;;;;;;;;13.51;54.70;100575.53;5060098;28;19924;-79
2023/03/23 02:48:30;;;;;;;;;;;;;;;13.54;54.56;100582.28;5067139;28;19917;-79
2023/03/23 02:51:22;;;;;;;;;;;;;;;13.44;54.82;100580.78;5056642;28;20403;-79
2023/03/23 02:54:16;;;;;;;;;;;;;;;13.54;54.79;100582.28;5071248;28;19920;-79
2023/03/23 02:57:06;;;;;;;;;;;;;;;13.50;54.75;100579.44;5056810;28;19916;-79
2023/03/23 03:00:00;;;;;;;;;;;;;;;13.56;54.30;100580.03;5067670;28;19917;-80
2023/03/23 03:02:59;;;;;;;;;;;;;;;13.60;54.58;100587.19;5065413;28;19917;-79
2023/03/23 03:05:54;;;;;;;;;;;;;;;13.56;54.82;100575.31;5070793;28;19929;-78
2023/03/23 03:08:50;;;;;;;;;;;;;;;13.58;54.68;100575.81;5058700;28;19917;-77
2023/03/23 03:11:47;;;;;;;;;;;;;;;13.47;55.22;100585.56;5065251;28;19917;-79
2023/03/23 03:14:39;;;;;;;;;;;;;;;13.42;55.39;100572.13;5061444;28;19917;-78
2023/03/23 03:17:34;;;;;;;;;;;;;;;13.34;55.57;100575.75;5064961;28;19916;-79
2023/03/23 03:20:27;;;;;;;;;;;;;;;13.41;55.40;100573.25;5063317;28;19917;-80
2023/03/23 03:23:20;;;;;;;;;;;;;;;13.38;55.51;100579.41;5062274;28;19916;-80
2023/03/23 03:26:13;;;;;;;;;;;;;;;13.34;56.21;100577.69;5053251;28;19920;-76
2023/03/23 03:29:08;;;;;;;;;;;;;;;13.34;56.01;100589.41;5057693;28;19917;-75
2023/03/23 03:32:06;;;;;;;;;;;;;;;13.35;55.51;100592.94;5067263;28;19924;-79
2023/03/23 03:34:58;;;;;;;;;;;;;;;13.43;55.22;100592.03;5056020;28;19917;-79
2023/03/23 03:37:50;;;;;;;;;;;;;;;13.43;55.25;100576.44;5057089;28;20380;-77
2023/03/23 03:40:42;;;;;;;;;;;;;;;13.49;54.70;100586.03;5058350;28;19917;-79
2023/03/23 03:43:34;;;;;;;;;;;;;;;13.42;54.53;100579.50;5062505;28;19921;-79
2023/03/23 03:46:27;;;;;;;;;;;;;;;13.38;54.83;100586.78;5058102;28;19920;-77
2023/03/23 03:49:20;;;;;;;;;;;;;;;13.20;55.07;100588.91;5063986;28;19916;-77
2023/03/23 03:52:12;;;;;;;;;;;;;;;13.16;55.82;100585.22;5061694;28;20310;-77
2023/03/23 03:55:05;;;;;;;;;;;;;;;13.19;56.19;100592.75;5073121;28;19925;-78
2023/03/23 03:57:57;;;;;;;;;;;;;;;13.12;55.76;100592.50;5050563;28;19925;-77
2023/03/23 04:01:06;;;;;;;;;;;;;;;12.93;56.55;100586.69;5060622;28;20388;-77
2023/03/23 04:04:00;;;;;;;;;;;;;;;12.73;57.57;100580.91;5057611;28;19921;-78
2023/03/23 04:06:53;;;;;;;;;;;;;;;12.91;57.09;100586.22;5055899;28;19921;-77
2023/03/23 04:09:45;;;;;;;;;;;;;;;13.07;56.42;100589.94;5072915;28;19921;-77
2023/03/23 04:12:38;;;;;;;;;;;;;;;13.13;56.21;100589.44;5059968;28;19916;-78
2023/03/23 04:15:47;;;;;;;;;;;;;;;13.22;55.79;100592.06;5065747;28;19921;-77
2023/03/23 04:18:40;;;;;;;;;;;;;;;13.19;55.71;100592.75;5061013;28;19921;-77
2023/03/23 04:21:32;;;;;;;;;;;;;;;13.26;55.61;100599.25;5059781;28;19917;-77
2023/03/23 04:24:24;;;;;;;;;;;;;;;13.24;55.91;100598.00;5056895;28;19917;-78
2023/03/23 04:27:16;;;;;;;;;;;;;;;13.27;55.77;100600.06;5047078;28;19921;-75
2023/03/23 04:30:08;;;;;;;;;;;;;;;13.21;55.48;100594.00;5053843;28;19917;-78
2023/03/23 04:33:08;;;;;;;;;;;;;;;13.20;55.47;100600.63;5054814;28;19917;-78
2023/03/23 04:36:01;;;;;;;;;;;;;;;13.12;55.30;100601.47;5055940;28;19917;-75
2023/03/23 04:38:58;;;;;;;;;;;;;;;13.16;55.82;100615.25;5048661;28;19917;-75
2023/03/23 04:41:50;;;;;;;;;;;;;;;13.06;55.83;100615.63;5059698;28;19928;-77
2023/03/23 04:44:55;;;;;;;;;;;;;;;12.95;56.40;100614.47;5058706;28;19939;-78
2023/03/23 04:47:53;;;;;;;;;;;;;;;12.94;56.45;100619.13;5051327;28;19937;-77
2023/03/23 04:50:47;;;;;;;;;;;;;;;12.91;56.61;100617.03;5072311;28;19917;-77
2023/03/23 04:53:44;;;;;;;;;;;;;;;12.78;56.79;100620.84;5058509;28;19917;-78
2023/03/23 04:56:36;;;;;;;;;;;;;;;12.54;57.17;100612.50;5069526;28;19924;-78
2023/03/23 04:59:31;;;;;;;;;;;;;;;12.52;57.89;100612.81;5048139;28;20304;-78
2023/03/23 05:02:32;;;;;;;;;;;;;;;12.64;57.69;100615.66;5055339;28;19916;-77
2023/03/23 05:05:25;;;;;;;;;;;;;;;12.67;57.75;100617.69;5056301;28;20380;-78
2023/03/23 05:08:17;;;;;;;;;;;;;;;12.51;57.68;100618.59;5052299;28;20396;-78
2023/03/23 05:11:09;;;;;;;;;;;;;;;12.46;58.16;100610.63;5059621;28;19916;-77
2023/03/23 05:14:01;;;;;;;;;;;;;;;12.50;57.92;100623.25;5059857;28;19917;-77
2023/03/23 05:16:53;;;;;;;;;;;;;;;12.49;58.15;100620.88;5050507;28;20391;-77
2023/03/23 05:19:47;;;;;;;;;;;;;;;12.56;57.59;100619.22;5070236;28;19920;-77
2023/03/23 05:22:52;;;;;;;;;;;;;;;12.53;57.97;100622.63;5053730;28;19916;-77
2023/03/23 05:25:47;;;;;;;;;;;;;;;12.53;57.95;100633.53;5073401;28;20292;-78
2023/03/23 05:28:40;;;;;;;;;;;;;;;12.56;57.96;100630.13;5074889;28;19921;-78
2023/03/23 05:31:39;;;;;;;;;;;;;;;12.55;57.94;100633.97;5060849;28;19921;-77
2023/03/23 05:34:32;;;;;;;;;;;;;;;12.34;58.61;100642.09;5073537;28;22067;-79
2023/03/23 05:37:22;;;;;;;;;;;;;;;12.46;58.48;100644.16;5066152;28;19924;-77
2023/03/23 05:40:19;;;;;;;;;;;;;;;12.34;58.25;100649.50;5057914;28;19917;-78
2023/03/23 05:43:14;;;;;;;;;;;;;;;12.40;58.45;100650.91;5056957;28;19925;-77
2023/03/23 05:46:22;;;;;;;;;;;;;;;12.29;58.52;100658.66;5057342;28;19920;-75
2023/03/23 05:49:14;;;;;;;;;;;;;;;12.41;58.22;100655.25;5061277;28;20395;-77
2023/03/23 05:52:06;;;;;;;;;;;;;;;12.49;57.87;100656.34;5063420;28;20291;-77
2023/03/23 05:54:58;;;;;;;;;;;;;;;12.48;58.10;100662.91;5070595;28;19917;-77
2023/03/23 05:57:50;;;;;;;;;;;;;;;12.53;58.10;100668.97;5053445;28;20300;-79
2023/03/23 06:00:46;;;;;;;;;;;;;;;12.46;58.26;100671.41;5069600;28;20388;-79
2023/03/23 06:03:41;;;;;;;;;;;;;;;12.52;57.94;100680.22;5062229;28;19917;-78
2023/03/23 06:06:40;;;;;;;;;;;;;;;12.50;58.22;100683.25;5058507;28;19920;-79
2023/03/23 06:09:32;;;;;;;;;;;;;;;12.48;59.07;100688.25;5059839;28;19925;-80
2023/03/23 06:12:47;;;;;;;;;;;;;;;12.61;58.76;100691.88;5057923;28;19917;-78
2023/03/23 06:15:52;;;;;;;;;;;;;;;12.52;59.06;100691.13;5055973;28;19916;-78
2023/03/23 06:18:52;;;;;;;;;;;;;;;12.49;59.55;100684.41;5056389;28;20307;-77
2023/03/23 06:21:56;;;;;;;;;;;;;;;12.64;59.04;100691.22;5051276;28;20157;-79
2023/03/23 06:25:10;;;;;;;;;;;;;;;12.81;59.06;100697.38;5035492;28;19917;-79
2023/03/23 06:28:03;;;;;;;;;;;;;;;12.86;58.60;100691.72;5073074;28;19921;-80
2023/03/23 06:30:55;;;;;;;;;;;;;;;12.93;58.62;100704.06;5068822;28;19921;-78
2023/03/23 06:33:47;;;;;;;;;;;;;;;12.92;58.45;100688.81;5054363;28;19917;-78
2023/03/23 06:36:52;;;;;;;;;;;;;;;12.94;58.56;100700.19;5054139;28;21499;-77
2023/03/23 06:39:46;;;;;;;;;;;;;;;12.99;58.11;100709.00;5065215;28;19917;-80
2023/03/23 06:42:54;;;;;;;;;;;;;;;13.06;58.23;100708.44;5050475;28;20304;-77
2023/03/23 06:46:03;;;;;;;;;;;;;;;13.12;58.18;100707.16;5048685;28;20387;-78
2023/03/23 06:49:08;;;;;;;;;;;;;;;13.20;57.82;100714.50;5041997;28;19921;-77
2023/03/23 06:52:06;;;;;;;;;;;;;;;13.27;58.43;100722.94;5053031;28;19917;-79
2023/03/23 06:54:58;;;;;;;;;;;;;;;13.33;58.88;100723.56;5043197;28;20279;-78
2023/03/23 06:57:50;;;;;;;;;;;;;;;13.38;58.99;100726.09;5058838;28;19920;-78
2023/03/23 07:00:40;;;;;;;;;;;;;;;13.38;59.41;100729.63;5066862;28;19916;-79
2023/03/23 07:03:32;;;;;;;;;;;;;;;13.42;59.78;100732.47;5059294;28;19916;-79
2023/03/23 07:06:24;;;;;;;;;;;;;;;13.48;59.93;100726.47;5074947;28;20292;-79
2023/03/23 07:09:19;;;;;;;;;;;;;;;13.50;60.09;100734.34;5071572;28;19916;-79
2023/03/23 07:12:11;;;;;;;;;;;;;;;13.62;59.17;100731.66;5075036;28;19917;-80
2023/03/23 07:15:07;;;;;;;;;;;;;;;13.62;58.67;100735.19;5058165;28;20279;-80
2023/03/23 07:18:00;;;;;;;;;;;;;;;13.66;57.53;100727.91;5074880;28;20372;-79
2023/03/23 07:21:05;;;;;;;;;;;;;;;13.68;57.22;100735.78;5056611;28;20319;-80
2023/03/23 07:23:59;;;;;;;;;;;;;;;13.77;56.94;100728.31;5061613;28;19916;-80
2023/03/23 07:27:09;;;;;;;;;;;;;;;13.87;56.31;100725.16;5032452;28;19920;-79
2023/03/23 07:30:01;;;;;;;;;;;;;;;13.86;56.70;100736.44;5056251;28;19916;-79
2023/03/23 07:32:52;;;;;;;;;;;;;;;13.84;56.99;100739.50;5059918;28;19916;-79
2023/03/23 07:35:44;;;;;;;;;;;;;;;13.99;57.11;100729.88;5057680;28;19917;-79
2023/03/23 07:38:36;;;;;;;;;;;;;;;14.03;56.90;100736.25;5055252;28;20387;-80
2023/03/23 07:41:28;;;;;;;;;;;;;;;14.18;56.72;100735.59;5061599;28;20299;-80
2023/03/23 07:44:22;;;;;;;;;;;;;;;14.20;56.55;100736.06;5060488;28;19916;-80
2023/03/23 07:47:14;;;;;;;;;;;;;;;14.24;56.82;100734.25;5060018;28;19921;-79
2023/03/23 07:50:06;;;;;;;;;;;;;;;14.24;57.11;100738.94;5061517;28;19917;-79
2023/03/23 07:53:00;;;;;;;;;;;;;;;14.29;57.11;100736.78;5059766;28;19917;-79
2023/03/23 07:55:53;;;;;;;;;;;;;;;14.38;56.64;100726.56;5072945;28;19916;-79
2023/03/23 07:59:09;;;;;;;;;;;;;;;14.48;56.20;100730.78;5057433;28;19917;-78
2023/03/23 08:02:03;;;;;;;;;;;;;;;14.55;55.98;100737.28;5052321;28;19979;-80
2023/03/23 08:05:15;;;;;;;;;;;;;;;14.72;55.54;100730.00;5051885;28;19920;-79
2023/03/23 08:08:28;;;;;;;;;;;;;;;14.83;55.09;100731.16;5051010;28;19921;-79
2023/03/23 08:11:36;;;;;;;;;;;;;;;14.86;55.09;100736.72;5035298;28;19917;-79
2023/03/23 08:14:45;;;;;;;;;;;;;;;14.89;55.84;100730.56;5052958;28;20413;-79
2023/03/23 08:18:09;;;;;;;;;;;;;;;15.04;55.53;100736.47;5064382;28;19917;-78
2023/03/23 08:21:20;;;;;;;;;;;;;;;15.16;55.29;100734.53;5060335;28;19917;-76
2023/03/23 08:24:48;;;;;;;;;;;;;;;15.28;54.82;100737.25;5047341;28;19921;-76
2023/03/23 08:28:05;;;;;;;;;;;;;;;15.53;53.08;100742.69;5064342;28;19921;-78
2023/03/23 08:31:16;;;;;;;;;;;;;;;15.56;53.47;100741.97;5074157;28;19917;-77
2023/03/23 08:34:25;;;;;;;;;;;;;;;15.48;53.67;100749.19;5069831;28;19917;-79
2023/03/23 08:37:54;;;;;;;;;;;;;;;15.60;53.48;100749.16;5053108;28;19917;-75
2023/03/23 08:41:02;;;;;;;;;;;;;;;15.78;52.20;100745.00;5053689;28;20343;-77
2023/03/23 08:43:59;;;;;;;;;;;;;;;15.80;52.57;100744.63;5072554;28;19917;-78
2023/03/23 08:47:07;;;;;;;;;;;;;;;15.88;52.77;100754.66;5048558;28;19921;-78
2023/03/23 08:50:17;;;;;;;;;;;;;;;15.92;52.98;100750.06;5061655;28;20298;-78
2023/03/23 08:53:23;;;;;;;;;;;;;;;16.07;52.42;100754.78;5050435;28;20056;-78
2023/03/23 08:56:22;;;;;;;;;;;;;;;16.19;52.37;100756.66;5069859;28;19917;-79
2023/03/23 08:59:47;;;;;;;;;;;;;;;16.30;52.03;100762.44;5031565;28;19917;-78
2023/03/23 09:02:56;;;;;;;;;;;;;;;16.24;52.51;100757.22;5033974;28;20384;-79
2023/03/23 09:05:49;;;;;;;;;;;;;;;16.30;52.22;100771.47;5058084;28;20299;-80
2023/03/23 09:08:55;;;;;;;;;;;;;;;16.37;52.59;100757.13;5062797;28;19920;-78
2023/03/23 09:11:47;;;;;;;;;;;;;;;16.51;52.25;100755.53;5078241;28;19920;-81
2023/03/23 09:14:38;;;;;;;;;;;;;;;16.63;51.97;100758.22;5083921;28;19916;-81
2023/03/23 09:17:30;;;;;;;;;;;;;;;16.61;51.75;100763.25;5079724;28;19916;-81
2023/03/23 09:20:23;;;;;;;;;;;;;;;16.68;51.56;100759.91;5086040;28;19916;-80
2023/03/23 09:23:15;;;;;;;;;;;;;;;16.71;51.34;100772.16;5085490;28;19916;-80
2023/03/23 09:26:07;;;;;;;;;;;;;;;16.74;51.60;100774.97;5076367;28;19916;-79
2023/03/23 09:28:59;;;;;;;;;;;;;;;16.79;51.29;100782.13;5070282;28;20384;-80
2023/03/23 09:31:51;;;;;;;;;;;;;;;16.97;50.86;100773.16;5070174;28;20319;-80
2023/03/23 09:34:42;;;;;;;;;;;;;;;17.04;50.37;100778.03;5061336;28;19917;-79
2023/03/23 09:37:34;;;;;;;;;;;;;;;17.12;50.04;100779.03;5059124;28;20384;-79
2023/03/23 09:40:42;;;;;;;;;;;;;;;17.13;49.60;100781.38;5062738;28;19921;-80
2023/03/23 09:43:53;;;;;;;;;;;;;;;17.25;49.24;100784.03;5058239;28;19917;-80
2023/03/23 09:46:57;;;;;;;;;;;;;;;17.36;48.54;100782.31;5062755;28;19916;-80
2023/03/23 09:50:02;;;;;;;;;;;;;;;17.40;48.27;100779.66;5057228;28;19924;-81
2023/03/23 09:53:00;;;;;;;;;;;;;;;17.26;48.93;100776.59;5061504;28;19917;-81
2023/03/23 09:55:52;;;;;;;;;;;;;;;17.39;48.92;100773.34;5057725;28;19917;-79
2023/03/23 09:58:59;;;;;;;;;;;;;;;17.59;48.33;100765.13;5054413;28;19917;-78
2023/03/23 10:01:53;;;;;;;;;;;;;;;17.56;48.61;100774.91;5058005;28;19917;-80
2023/03/23 10:04:56;;;;;;;;;;;;;;;17.61;47.36;100776.59;5056775;28;19917;-79
2023/03/23 10:07:48;;;;;;;;;;;;;;;17.49;47.73;100775.53;5061153;28;19921;-80
2023/03/23 10:11:00;;;;;;;;;;;;;;;17.57;47.31;100773.75;5057185;28;19916;-79
2023/03/23 10:13:50;;;;;;;;;;;;;;;17.69;47.38;100770.88;5068022;28;20303;-80
2023/03/23 10:16:48;;;;;;;;;;;;;;;17.74;47.64;100767.81;5058828;28;19917;-79
2023/03/23 10:19:43;;;;;;;;;;;;;;;17.77;47.80;100767.13;5065837;28;20387;-80
2023/03/23 10:22:36;;;;;;;;;;;;;;;17.87;47.49;100765.75;5058371;28;19916;-80
2023/03/23 10:25:31;;;;;;;;;;;;;;;18.02;47.14;100756.59;5060045;28;20300;-78
2023/03/23 10:28:24;;;;;;;;;;;;;;;18.06;46.88;100762.16;5064939;28;19921;-80
2023/03/23 10:31:21;;;;;;;;;;;;;;;18.12;46.32;100764.25;5063072;28;19920;-80
2023/03/23 10:34:14;;;;;;;;;;;;;;;18.27;46.32;100757.06;5059349;28;19917;-80
2023/03/23 10:37:23;;;;;;;;;;;;;;;18.25;46.21;100751.91;5068465;28;19921;-78
2023/03/23 10:40:19;;;;;;;;;;;;;;;18.17;46.54;100763.16;5053950;28;20388;-78
2023/03/23 10:43:11;;;;;;;;;;;;;;;18.20;46.78;100757.72;5062752;28;19917;-80
2023/03/23 10:46:04;;;;;;;;;;;;;;;18.30;46.54;100759.06;5060276;28;19917;-81
2023/03/23 10:48:56;;;;;;;;;;;;;;;18.28;46.97;100759.44;5063823;28;20327;-80
2023/03/23 10:51:49;;;;;;;;;;;;;;;18.30;47.11;100745.31;5070505;28;19917;-79
2023/03/23 10:54:41;;;;;;;;;;;;;;;18.31;47.02;100744.16;5074495;28;20384;-80
2023/03/23 10:57:33;;;;;;;;;;;;;;;18.35;47.46;100748.53;5058134;28;19917;-81
2023/03/23 11:00:26;;;;;;;;;;;;;;;18.36;47.23;100738.34;5059081;28;19917;-80
2023/03/23 11:03:18;;;;;;;;;;;;;;;18.35;47.37;100740.28;5058106;28;19917;-79
2023/03/23 11:06:11;;;;;;;;;;;;;;;18.24;47.21;100733.78;5054448;28;19917;-78
2023/03/23 11:09:03;;;;;;;;;;;;;;;18.30;47.16;100740.59;5071029;28;19921;-78
2023/03/23 11:11:58;;;;;;;;;;;;;;;18.47;46.25;100731.06;5068851;28;19916;-77
2023/03/23 11:14:50;;;;;;;;;;;;;;;18.57;46.07;100726.91;5060325;28;19921;-78
2023/03/23 11:17:42;;;;;;;;;;;;;;;18.57;46.29;100719.44;5056782;28;19917;-79
2023/03/23 11:20:35;;;;;;;;;;;;;;;18.58;46.00;100723.81;5061126;28;19936;-77
2023/03/23 11:23:34;;;;;;;;;;;;;;;18.71;46.00;100725.19;5058791;28;19916;-78
2023/03/23 11:26:45;;;;;;;;;;;;;;;18.78;45.66;100722.53;5051258;28;19925;-76
2023/03/23 11:29:37;;;;;;;;;;;;;;;18.80;45.18;100719.41;5058086;28;19928;-79
2023/03/23 11:32:30;;;;;;;;;;;;;;;18.77;45.61;100715.44;5064360;28;19917;-78
2023/03/23 11:35:21;;;;;;;;;;;;;;;18.72;45.48;100714.97;5073437;28;20398;-78
2023/03/23 11:38:17;;;;;;;;;;;;;;;18.75;45.08;100705.94;5060978;28;19917;-78
2023/03/23 11:41:11;;;;;;;;;;;;;;;18.79;45.22;100715.84;5055407;28;19916;-79
2023/03/23 11:44:04;;;;;;;;;;;;;;;18.80;44.94;100709.19;5059409;28;19916;-78
2023/03/23 11:47:12;;;;;;;;;;;;;;;18.92;45.06;100716.44;5057125;28;19920;-77
2023/03/23 11:50:18;;;;;;;;;;;;;;;19.02;45.80;100713.06;5064365;28;20391;-77
2023/03/23 11:53:14;;;;;;;;;;;;;;;19.13;45.72;100715.97;5065324;28;20291;-78
2023/03/23 11:56:05;;;;;;;;;;;;;;;19.17;45.03;100716.78;5065869;28;19916;-78
2023/03/23 11:59:00;;;;;;;;;;;;;;;19.18;45.03;100712.88;5056599;28;19921;-76
2023/03/23 12:02:09;;;;;;;;;;;;;;;21.24;43.06;100719.25;5068983;28;19920;-77
2023/03/23 12:05:16;;;;;;;;;;;;;;;26.80;31.03;100715.97;5011886;28;20305;-75
2023/03/23 12:08:09;;;;;;;;;;;;;;;27.01;30.19;100719.63;5055957;28;19921;-76
2023/03/23 12:11:04;;;;;;;;;;;;;;;26.89;30.32;100707.06;5057273;28;20324;-75
2023/03/23 12:14:00;;;;;;;;;;;;;;;26.98;30.14;100712.88;5056833;28;20307;-75
2023/03/23 12:16:56;;;;;;;;;;;;;;;30.84;23.93;100707.47;5072005;28;19917;-75
2023/03/23 12:20:07;;;;;;;;;;;;;;;24.87;32.53;100695.13;5056566;28;19917;-78
2023/03/23 12:23:03;;;;;;;;;;;;;;;23.69;34.52;100691.63;5051284;28;19916;-75
2023/03/23 12:26:11;;;;;;;;;;;;;;;23.32;35.39;100692.16;5056249;28;19917;-75
2023/03/23 12:29:08;;;;;;;;;;;;;;;22.38;37.65;100684.41;5055342;28;19921;-76
2023/03/23 12:32:26;;;;;;;;;;;;;;;22.02;38.57;100678.03;5049049;28;19917;-75
2023/03/23 12:35:21;;;;;;;;;;;;;;;21.93;38.48;100679.56;4983363;28;19917;-75
2023/03/23 12:38:20;;;;;;;;;;;;;;;21.15;40.26;100677.31;5054428;28;19917;-75
2023/03/23 12:41:22;;;;;;;;;;;;;;;21.50;39.50;100668.38;5033829;28;19917;-75
2023/03/23 12:44:15;;;;;;;;;;;;;;;21.39;39.69;100661.22;5033765;28;19917;-76
2023/03/23 12:47:25;;;;;;;;;;;;;;;21.86;38.67;100658.19;5034183;28;19921;-76
2023/03/23 12:50:26;;;;;;;;;;;;;;;21.82;38.81;100657.41;5037647;28;19917;-76
2023/03/23 12:53:18;;;;;;;;;;;;;;;22.21;38.31;100645.59;5036364;28;19917;-76
2023/03/23 12:56:18;;;;;;;;;;;;;;;21.20;39.93;100632.72;5052169;28;19916;-76
2023/03/23 12:59:19;;;;;;;;;;;;;;;21.15;40.47;100640.56;5062639;28;19917;-75
2023/03/23 13:02:23;;;;;;;;;;;;;;;21.50;39.38;100628.84;5047338;28;19928;-76
2023/03/23 13:05:19;;;;;;;;;;;;;;;21.80;38.13;100626.53;5056402;28;20386;-75
2023/03/23 13:08:13;;;;;;;;;;;;;;;21.69;39.06;100625.72;5059414;28;19920;-76
2023/03/23 13:11:06;;;;;;;;;;;;;;;21.81;38.83;100619.81;5057860;28;19917;-76
2023/03/23 13:14:00;;;;;;;;;;;;;;;21.36;39.81;100615.78;5062112;28;19917;-76
2023/03/23 13:17:00;;;;;;;;;;;;;;;21.48;39.33;100620.16;5064919;28;19917;-76
2023/03/23 13:20:11;;;;;;;;;;;;;;;22.01;37.38;100618.28;5057733;28;19916;-77
2023/03/23 13:23:14;;;;;;;;;;;;;;;21.45;39.13;100615.38;5056974;28;19921;-77
2023/03/23 13:26:08;;;;;;;;;;;;;;;21.81;38.41;100616.25;5056059;28;19917;-76
2023/03/23 13:29:06;;;;;;;;;;;;;;;21.69;38.43;100609.13;5061806;28;19921;-77
2023/03/23 13:32:13;;;;;;;;;;;;;;;22.16;36.92;100605.22;5037213;28;20364;-78
2023/03/23 13:35:04;;;;;;;;;;;;;;;22.07;35.88;100607.59;5052895;28;19916;-77
2023/03/23 13:37:58;;;;;;;;;;;;;;;22.01;36.50;100607.22;5056385;28;20448;-77
2023/03/23 13:40:50;;;;;;;;;;;;;;;22.45;35.13;100604.00;5069679;28;19925;-77
2023/03/23 13:43:43;;;;;;;;;;;;;;;22.32;35.91;100599.28;5054269;28;19936;-76
2023/03/23 13:46:35;;;;;;;;;;;;;;;22.09;35.81;100596.94;5069981;28;19921;-76
2023/03/23 13:49:26;;;;;;;;;;;;;;;21.83;35.18;100584.25;5048525;28;19925;-77
2023/03/23 13:52:35;;;;;;;;;;;;;;;21.68;36.08;100574.34;5051779;28;19917;-77
2023/03/23 13:55:27;;;;;;;;;;;;;;;22.08;34.82;100576.75;5047997;28;19924;-76
2023/03/23 13:58:26;;;;;;;;;;;;;;;22.09;33.88;100567.25;5044976;28;20392;-76
2023/03/23 14:01:32;;;;;;;;;;;;;;;22.25;34.39;100577.91;5045207;28;19917;-76
2023/03/23 14:04:25;;;;;;;;;;;;;;;22.09;35.70;100567.25;5046854;28;19921;-77
2023/03/23 14:07:19;;;;;;;;;;;;;;;21.34;37.83;100571.88;5041064;28;19917;-77
2023/03/23 14:10:18;;;;;;;;;;;;;;;21.65;37.26;100562.06;5045357;28;19921;-77
2023/03/23 14:13:12;;;;;;;;;;;;;;;22.02;34.51;100567.25;5047884;28;19925;-76
2023/03/23 14:16:05;;;;;;;;;;;;;;;21.84;36.21;100558.13;5047844;28;19917;-77
2023/03/23 14:19:00;;;;;;;;;;;;;;;21.58;35.88;100555.75;5046620;28;19921;-76
2023/03/23 14:22:02;;;;;;;;;;;;;;;21.55;36.34;100548.22;5063232;28;19917;-77
2023/03/23 14:24:54;;;;;;;;;;;;;;;21.70;34.76;100549.81;5053699;28;19917;-77
2023/03/23 14:27:46;;;;;;;;;;;;;;;21.82;34.04;100535.59;5058053;28;19921;-77
2023/03/23 14:30:38;;;;;;;;;;;;;;;21.54;34.83;100538.31;5056535;28;19917;-76
2023/03/23 14:33:28;;;;;;;;;;;;;;;21.76;34.79;100537.16;5052023;28;20303;-76
2023/03/23 14:36:29;;;;;;;;;;;;;;;21.64;33.75;100541.09;5055824;28;19917;-76
2023/03/23 14:39:22;;;;;;;;;;;;;;;21.54;33.68;100543.84;5044016;28;19917;-77
2023/03/23 14:42:17;;;;;;;;;;;;;;;21.65;34.76;100547.44;5045244;28;20287;-77
2023/03/23 14:45:09;;;;;;;;;;;;;;;21.41;35.80;100542.66;5042205;28;20303;-74
2023/03/23 14:48:02;;;;;;;;;;;;;;;21.23;36.40;100550.94;5052244;28;19921;-76
2023/03/23 14:50:58;;;;;;;;;;;;;;;21.11;36.47;100546.53;5046855;28;19916;-76
2023/03/23 14:53:50;;;;;;;;;;;;;;;21.03;35.51;100541.38;5051444;28;19917;-77
2023/03/23 14:56:43;;;;;;;;;;;;;;;21.17;35.69;100550.53;5058551;28;19917;-77
2023/03/23 14:59:35;;;;;;;;;;;;;;;21.37;34.66;100555.69;5047578;28;19916;-77
2023/03/23 15:02:28;;;;;;;;;;;;;;;20.81;37.29;100543.25;5059954;28;19925;-78
2023/03/23 15:05:21;;;;;;;;;;;;;;;20.96;34.44;100544.88;5056575;28;19921;-77